Wilson Corner, South Dakota
Current Conditions -  °F | °C
As of 5:53 AM on Thursday 23 Oct 2014 (Local Time) from KHEI Reporting Station
Clear Clear  
Wind Chill: 35°   Ceiling: Unl
Heat Index: 35°   Visibility: 10mi
Dew Point: 26°   Wind: 0mph
Humidity: 70%   Direction: NA
Pressure: 29.93"   Gusts: NA
Location:  45.8748°N, 103.314°W
Report Text: KHEI 231153Z AUTO 00000KT 10SM CLR 02/M03 A2993 RMK AO2 SLP146 T00171033 10050 21039 55006
Loading
Personal Weather Stations






























Interactive Weather Map
Tropical Storm Tracking
New forecast layout! Learn more

10-Day Weather Forecast

Advertisements
Track Severe Weather on mobile